sensor_id;sensor_type;location;lat;lon;timestamp;temperature;humidity
52919;DHT22;38793;52.690;6.812;2022-11-20T00:01:11;-1.70;99.90
52919;DHT22;38793;52.690;6.812;2022-11-20T00:03:37;-1.60;99.90
52919;DHT22;38793;52.690;6.812;2022-11-20T00:06:04;-1.70;99.90
52919;DHT22;38793;52.690;6.812;2022-11-20T00:08:30;-1.70;99.90
52919;DHT22;38793;52.690;6.812;2022-11-20T00:10:56;-1.70;99.90
52919;DHT22;38793;52.690;6.812;2022-11-20T00:13:21;-1.70;99.90
52919;DHT22;38793;52.690;6.812;2022-11-20T00:15:47;-1.70;99.90
52919;DHT22;38793;52.690;6.812;2022-11-20T00:18:12;-1.70;99.90
52919;DHT22;38793;52.690;6.812;2022-11-20T00:20:38;-1.80;99.90
52919;DHT22;38793;52.690;6.812;2022-11-20T00:23:03;-1.80;99.90
52919;DHT22;38793;52.690;6.812;2022-11-20T00:25:29;-1.80;99.90
52919;DHT22;38793;52.690;6.812;2022-11-20T00:27:54;-1.80;99.90
52919;DHT22;38793;52.690;6.812;2022-11-20T00:30:20;-1.80;99.90
52919;DHT22;38793;52.690;6.812;2022-11-20T00:32:46;-1.80;99.90
52919;DHT22;38793;52.690;6.812;2022-11-20T00:35:11;-1.80;99.90
52919;DHT22;38793;52.690;6.812;2022-11-20T00:37:37;-1.80;99.90
52919;DHT22;38793;52.690;6.812;2022-11-20T00:40:03;-1.80;99.90
52919;DHT22;38793;52.690;6.812;2022-11-20T00:42:28;-1.70;99.90
52919;DHT22;38793;52.690;6.812;2022-11-20T00:44:54;-1.70;99.90
52919;DHT22;38793;52.690;6.812;2022-11-20T00:47:19;-1.60;99.90
52919;DHT22;38793;52.690;6.812;2022-11-20T00:49:45;-1.60;99.90
52919;DHT22;38793;52.690;6.812;2022-11-20T00:52:10;-1.50;99.90
52919;DHT22;38793;52.690;6.812;2022-11-20T00:54:36;-1.40;99.90
52919;DHT22;38793;52.690;6.812;2022-11-20T00:57:01;-1.40;99.90
52919;DHT22;38793;52.690;6.812;2022-11-20T00:59:27;-1.40;99.90
52919;DHT22;38793;52.690;6.812;2022-11-20T01:01:53;-1.30;99.90
52919;DHT22;38793;52.690;6.812;2022-11-20T01:04:18;-1.30;99.90
52919;DHT22;38793;52.690;6.812;2022-11-20T01:06:44;-1.30;99.90
52919;DHT22;38793;52.690;6.812;2022-11-20T01:09:12;-1.30;99.90
52919;DHT22;38793;52.690;6.812;2022-11-20T01:11:40;-1.30;99.90
52919;DHT22;38793;52.690;6.812;2022-11-20T01:14:10;-1.20;99.90
52919;DHT22;38793;52.690;6.812;2022-11-20T01:16:41;-1.20;99.90
52919;DHT22;38793;52.690;6.812;2022-11-20T01:19:11;-1.20;99.90
52919;DHT22;38793;52.690;6.812;2022-11-20T01:21:40;-1.10;99.90
52919;DHT22;38793;52.690;6.812;2022-11-20T01:24:08;-1.10;99.90
52919;DHT22;38793;52.690;6.812;2022-11-20T01:26:36;-1.10;99.90
52919;DHT22;38793;52.690;6.812;2022-11-20T01:29:03;-1.00;99.90
52919;DHT22;38793;52.690;6.812;2022-11-20T01:31:35;-1.00;99.90
52919;DHT22;38793;52.690;6.812;2022-11-20T01:34:03;-1.00;99.90
52919;DHT22;38793;52.690;6.812;2022-11-20T01:36:30;-1.00;99.90
52919;DHT22;38793;52.690;6.812;2022-11-20T01:38:58;-1.00;99.90
52919;DHT22;38793;52.690;6.812;2022-11-20T01:41:25;-1.00;99.90
52919;DHT22;38793;52.690;6.812;2022-11-20T01:44:13;-1.00;99.90
52919;DHT22;38793;52.690;6.812;2022-11-20T01:46:42;-1.00;99.90
52919;DHT22;38793;52.690;6.812;2022-11-20T01:49:23;-1.00;99.90
52919;DHT22;38793;52.690;6.812;2022-11-20T01:51:54;-1.00;99.90
52919;DHT22;38793;52.690;6.812;2022-11-20T01:54:36;-1.10;99.90
52919;DHT22;38793;52.690;6.812;2022-11-20T01:57:06;-1.10;99.90
52919;DHT22;38793;52.690;6.812;2022-11-20T01:59:37;-1.20;99.90
52919;DHT22;38793;52.690;6.812;2022-11-20T02:02:04;-1.20;99.90
52919;DHT22;38793;52.690;6.812;2022-11-20T02:04:30;-1.30;99.90
52919;DHT22;38793;52.690;6.812;2022-11-20T02:06:59;-1.20;99.90
52919;DHT22;38793;52.690;6.812;2022-11-20T02:09:26;-1.20;99.90
52919;DHT22;38793;52.690;6.812;2022-11-20T02:11:52;-1.20;99.90
52919;DHT22;38793;52.690;6.812;2022-11-20T02:14:18;-1.10;99.90
52919;DHT22;38793;52.690;6.812;2022-11-20T02:16:46;-1.20;99.90
52919;DHT22;38793;52.690;6.812;2022-11-20T02:19:30;-1.20;99.90
52919;DHT22;38793;52.690;6.812;2022-11-20T02:22:06;-1.20;99.90
52919;DHT22;38793;52.690;6.812;2022-11-20T02:24:33;-1.20;99.90
52919;DHT22;38793;52.690;6.812;2022-11-20T02:27:02;-1.20;99.90
52919;DHT22;38793;52.690;6.812;2022-11-20T02:29:35;-1.20;99.90
52919;DHT22;38793;52.690;6.812;2022-11-20T02:32:02;-1.20;99.90
52919;DHT22;38793;52.690;6.812;2022-11-20T02:34:28;-1.20;99.90
52919;DHT22;38793;52.690;6.812;2022-11-20T02:36:55;-1.20;99.90
52919;DHT22;38793;52.690;6.812;2022-11-20T02:39:23;-1.20;99.90
52919;DHT22;38793;52.690;6.812;2022-11-20T02:41:52;-1.20;99.90
52919;DHT22;38793;52.690;6.812;2022-11-20T02:44:18;-1.20;99.90
52919;DHT22;38793;52.690;6.812;2022-11-20T02:46:43;-1.20;99.90
52919;DHT22;38793;52.690;6.812;2022-11-20T02:49:09;-1.20;99.90
52919;DHT22;38793;52.690;6.812;2022-11-20T02:51:34;-1.20;99.90
52919;DHT22;38793;52.690;6.812;2022-11-20T02:54:00;-1.30;99.90
52919;DHT22;38793;52.690;6.812;2022-11-20T02:56:25;-1.30;99.90
52919;DHT22;38793;52.690;6.812;2022-11-20T02:58:51;-1.30;99.90
52919;DHT22;38793;52.690;6.812;2022-11-20T03:01:17;-1.20;99.90
52919;DHT22;38793;52.690;6.812;2022-11-20T03:03:42;-1.20;99.90
52919;DHT22;38793;52.690;6.812;2022-11-20T03:06:08;-1.20;99.90
52919;DHT22;38793;52.690;6.812;2022-11-20T03:08:34;-1.20;99.90
52919;DHT22;38793;52.690;6.812;2022-11-20T03:11:05;-1.20;99.90
52919;DHT22;38793;52.690;6.812;2022-11-20T03:13:31;-1.10;99.90
52919;DHT22;38793;52.690;6.812;2022-11-20T03:15:56;-1.10;99.90
52919;DHT22;38793;52.690;6.812;2022-11-20T03:18:22;-1.10;99.90
52919;DHT22;38793;52.690;6.812;2022-11-20T03:20:47;-1.10;99.90
52919;DHT22;38793;52.690;6.812;2022-11-20T03:23:13;-1.00;99.90
52919;DHT22;38793;52.690;6.812;2022-11-20T03:25:39;-1.00;99.90
52919;DHT22;38793;52.690;6.812;2022-11-20T03:28:04;-1.00;99.90
52919;DHT22;38793;52.690;6.812;2022-11-20T03:30:30;-1.00;99.90
52919;DHT22;38793;52.690;6.812;2022-11-20T03:32:55;-0.90;99.90
52919;DHT22;38793;52.690;6.812;2022-11-20T03:35:21;-1.00;99.90
52919;DHT22;38793;52.690;6.812;2022-11-20T03:37:46;-1.00;99.90
52919;DHT22;38793;52.690;6.812;2022-11-20T03:40:12;-1.10;99.90
52919;DHT22;38793;52.690;6.812;2022-11-20T03:42:38;-1.00;99.90
52919;DHT22;38793;52.690;6.812;2022-11-20T03:45:14;-1.00;99.90
52919;DHT22;38793;52.690;6.812;2022-11-20T03:47:39;-0.90;99.90
52919;DHT22;38793;52.690;6.812;2022-11-20T03:50:05;-0.90;99.90
52919;DHT22;38793;52.690;6.812;2022-11-20T03:52:31;-0.90;99.90
52919;DHT22;38793;52.690;6.812;2022-11-20T03:54:57;-0.90;99.90
52919;DHT22;38793;52.690;6.812;2022-11-20T03:57:22;-0.90;99.90
52919;DHT22;38793;52.690;6.812;2022-11-20T03:59:48;-0.80;99.90
52919;DHT22;38793;52.690;6.812;2022-11-20T04:02:13;-0.80;99.90
52919;DHT22;38793;52.690;6.812;2022-11-20T04:04:39;-0.80;99.90
52919;DHT22;38793;52.690;6.812;2022-11-20T04:07:04;-0.80;99.90
52919;DHT22;38793;52.690;6.812;2022-11-20T04:09:30;-0.80;99.90
52919;DHT22;38793;52.690;6.812;2022-11-20T04:11:55;-0.80;99.90
52919;DHT22;38793;52.690;6.812;2022-11-20T04:14:21;-0.80;99.90
52919;DHT22;38793;52.690;6.812;2022-11-20T04:16:46;-0.80;99.90
52919;DHT22;38793;52.690;6.812;2022-11-20T04:19:15;-0.80;99.90
52919;DHT22;38793;52.690;6.812;2022-11-20T04:21:41;-0.80;99.90
52919;DHT22;38793;52.690;6.812;2022-11-20T04:24:08;-0.80;99.90
52919;DHT22;38793;52.690;6.812;2022-11-20T04:26:34;-0.80;99.90
52919;DHT22;38793;52.690;6.812;2022-11-20T04:28:59;-0.70;99.90
52919;DHT22;38793;52.690;6.812;2022-11-20T04:31:32;-0.70;99.90
52919;DHT22;38793;52.690;6.812;2022-11-20T04:34:04;-0.70;99.90
52919;DHT22;38793;52.690;6.812;2022-11-20T04:36:30;-0.60;99.90
52919;DHT22;38793;52.690;6.812;2022-11-20T04:39:01;-0.60;99.90
52919;DHT22;38793;52.690;6.812;2022-11-20T04:41:32;-0.70;99.90
52919;DHT22;38793;52.690;6.812;2022-11-20T04:44:00;-0.70;99.90
52919;DHT22;38793;52.690;6.812;2022-11-20T04:46:29;-0.70;99.90
52919;DHT22;38793;52.690;6.812;2022-11-20T04:48:55;-0.60;99.90
52919;DHT22;38793;52.690;6.812;2022-11-20T04:51:21;-0.60;99.90
52919;DHT22;38793;52.690;6.812;2022-11-20T04:53:47;-0.60;99.90
52919;DHT22;38793;52.690;6.812;2022-11-20T04:56:13;-0.60;99.90
52919;DHT22;38793;52.690;6.812;2022-11-20T04:58:40;-0.60;99.90
52919;DHT22;38793;52.690;6.812;2022-11-20T05:01:16;-0.60;99.90
52919;DHT22;38793;52.690;6.812;2022-11-20T05:03:42;-0.60;99.90
52919;DHT22;38793;52.690;6.812;2022-11-20T05:06:10;-0.50;99.90
52919;DHT22;38793;52.690;6.812;2022-11-20T05:08:36;-0.50;99.90
52919;DHT22;38793;52.690;6.812;2022-11-20T05:11:02;-0.50;99.90
52919;DHT22;38793;52.690;6.812;2022-11-20T05:13:28;-0.60;99.90
52919;DHT22;38793;52.690;6.812;2022-11-20T05:15:54;-0.50;99.90
52919;DHT22;38793;52.690;6.812;2022-11-20T05:18:19;-0.50;99.90
52919;DHT22;38793;52.690;6.812;2022-11-20T05:20:45;-0.50;99.90
52919;DHT22;38793;52.690;6.812;2022-11-20T05:23:11;-0.40;99.90
52919;DHT22;38793;52.690;6.812;2022-11-20T05:25:36;-0.40;99.90
52919;DHT22;38793;52.690;6.812;2022-11-20T05:28:02;-0.40;99.90
52919;DHT22;38793;52.690;6.812;2022-11-20T05:30:27;-0.50;99.90
52919;DHT22;38793;52.690;6.812;2022-11-20T05:32:53;-0.40;99.90
52919;DHT22;38793;52.690;6.812;2022-11-20T05:35:18;-0.40;99.90
52919;DHT22;38793;52.690;6.812;2022-11-20T05:37:44;-0.40;99.90
52919;DHT22;38793;52.690;6.812;2022-11-20T05:40:10;-0.30;99.90
52919;DHT22;38793;52.690;6.812;2022-11-20T05:42:36;-0.30;99.90
52919;DHT22;38793;52.690;6.812;2022-11-20T05:45:04;-0.40;99.90
52919;DHT22;38793;52.690;6.812;2022-11-20T05:47:34;-0.30;99.90
52919;DHT22;38793;52.690;6.812;2022-11-20T05:50:00;-0.30;99.90
52919;DHT22;38793;52.690;6.812;2022-11-20T05:52:28;-0.30;99.90
52919;DHT22;38793;52.690;6.812;2022-11-20T05:54:54;-0.30;99.90
52919;DHT22;38793;52.690;6.812;2022-11-20T05:57:20;-0.30;99.90
52919;DHT22;38793;52.690;6.812;2022-11-20T05:59:45;-0.30;99.90
52919;DHT22;38793;52.690;6.812;2022-11-20T06:02:11;-0.30;99.90
52919;DHT22;38793;52.690;6.812;2022-11-20T06:04:36;-0.30;99.90
52919;DHT22;38793;52.690;6.812;2022-11-20T06:07:02;-0.30;99.90
52919;DHT22;38793;52.690;6.812;2022-11-20T06:09:27;-0.30;99.90
52919;DHT22;38793;52.690;6.812;2022-11-20T06:11:53;-0.30;99.90
52919;DHT22;38793;52.690;6.812;2022-11-20T06:14:19;-0.30;99.90
52919;DHT22;38793;52.690;6.812;2022-11-20T06:16:44;-0.30;99.90
52919;DHT22;38793;52.690;6.812;2022-11-20T06:19:10;-0.30;99.90
52919;DHT22;38793;52.690;6.812;2022-11-20T06:21:35;-0.30;99.90
52919;DHT22;38793;52.690;6.812;2022-11-20T06:24:01;-0.30;99.90
52919;DHT22;38793;52.690;6.812;2022-11-20T06:26:27;-0.30;99.90
52919;DHT22;38793;52.690;6.812;2022-11-20T06:28:53;-0.20;99.90
52919;DHT22;38793;52.690;6.812;2022-11-20T06:31:21;-0.20;99.90
52919;DHT22;38793;52.690;6.812;2022-11-20T06:33:48;-0.20;99.90
52919;DHT22;38793;52.690;6.812;2022-11-20T06:36:15;-0.20;99.90
52919;DHT22;38793;52.690;6.812;2022-11-20T06:38:41;-0.20;99.90
52919;DHT22;38793;52.690;6.812;2022-11-20T06:41:11;-0.20;99.90
52919;DHT22;38793;52.690;6.812;2022-11-20T06:43:38;-0.20;99.90
52919;DHT22;38793;52.690;6.812;2022-11-20T06:46:03;-0.20;99.90
52919;DHT22;38793;52.690;6.812;2022-11-20T06:48:29;-0.10;99.90
52919;DHT22;38793;52.690;6.812;2022-11-20T06:50:56;-0.10;99.90
52919;DHT22;38793;52.690;6.812;2022-11-20T06:53:22;-0.20;99.90
52919;DHT22;38793;52.690;6.812;2022-11-20T06:55:49;-0.20;99.90
52919;DHT22;38793;52.690;6.812;2022-11-20T06:58:15;-0.20;99.90
52919;DHT22;38793;52.690;6.812;2022-11-20T07:00:41;-0.20;99.90
52919;DHT22;38793;52.690;6.812;2022-11-20T07:03:08;-0.20;99.90
52919;DHT22;38793;52.690;6.812;2022-11-20T07:05:35;-0.10;99.90
52919;DHT22;38793;52.690;6.812;2022-11-20T07:08:02;-0.10;99.90
52919;DHT22;38793;52.690;6.812;2022-11-20T07:10:27;-0.20;99.90
52919;DHT22;38793;52.690;6.812;2022-11-20T07:12:53;-0.20;99.90
52919;DHT22;38793;52.690;6.812;2022-11-20T07:15:21;-0.30;99.90
52919;DHT22;38793;52.690;6.812;2022-11-20T07:17:47;-0.30;99.90
52919;DHT22;38793;52.690;6.812;2022-11-20T07:20:13;-0.30;99.90
52919;DHT22;38793;52.690;6.812;2022-11-20T07:22:39;-0.30;99.90
52919;DHT22;38793;52.690;6.812;2022-11-20T07:25:05;-0.30;99.90
52919;DHT22;38793;52.690;6.812;2022-11-20T07:27:31;-0.40;99.90
52919;DHT22;38793;52.690;6.812;2022-11-20T07:29:57;-0.40;99.90
52919;DHT22;38793;52.690;6.812;2022-11-20T07:32:23;-0.40;99.90
52919;DHT22;38793;52.690;6.812;2022-11-20T07:34:48;-0.50;99.90
52919;DHT22;38793;52.690;6.812;2022-11-20T07:37:14;-0.50;99.90
52919;DHT22;38793;52.690;6.812;2022-11-20T07:39:40;-0.50;99.90
52919;DHT22;38793;52.690;6.812;2022-11-20T07:42:06;-0.40;99.90
52919;DHT22;38793;52.690;6.812;2022-11-20T07:44:32;-0.30;99.90
52919;DHT22;38793;52.690;6.812;2022-11-20T07:46:58;-0.30;99.90
52919;DHT22;38793;52.690;6.812;2022-11-20T07:49:23;-0.40;99.90
52919;DHT22;38793;52.690;6.812;2022-11-20T07:51:52;-0.30;99.90
52919;DHT22;38793;52.690;6.812;2022-11-20T07:54:19;-0.30;99.90
52919;DHT22;38793;52.690;6.812;2022-11-20T07:56:46;-0.20;99.90
52919;DHT22;38793;52.690;6.812;2022-11-20T07:59:11;-0.30;99.90
52919;DHT22;38793;52.690;6.812;2022-11-20T08:01:38;-0.30;99.90
52919;DHT22;38793;52.690;6.812;2022-11-20T08:04:04;-0.30;99.90
52919;DHT22;38793;52.690;6.812;2022-11-20T08:06:29;-0.30;99.90
52919;DHT22;38793;52.690;6.812;2022-11-20T08:08:55;-0.30;99.90
52919;DHT22;38793;52.690;6.812;2022-11-20T08:11:21;-0.30;99.90
52919;DHT22;38793;52.690;6.812;2022-11-20T08:14:05;-0.30;99.90
52919;DHT22;38793;52.690;6.812;2022-11-20T08:16:48;-0.10;99.90
52919;DHT22;38793;52.690;6.812;2022-11-20T08:19:16;-0.10;99.90
52919;DHT22;38793;52.690;6.812;2022-11-20T08:21:42;0.00;99.90
52919;DHT22;38793;52.690;6.812;2022-11-20T08:24:08;0.00;99.90
52919;DHT22;38793;52.690;6.812;2022-11-20T08:26:35;0.00;99.90
52919;DHT22;38793;52.690;6.812;2022-11-20T08:29:00;0.10;99.90
52919;DHT22;38793;52.690;6.812;2022-11-20T08:31:27;0.10;99.90
52919;DHT22;38793;52.690;6.812;2022-11-20T08:33:53;0.20;99.90
52919;DHT22;38793;52.690;6.812;2022-11-20T08:36:19;0.20;99.90
52919;DHT22;38793;52.690;6.812;2022-11-20T08:38:49;0.20;99.90
52919;DHT22;38793;52.690;6.812;2022-11-20T08:41:16;0.10;99.90
52919;DHT22;38793;52.690;6.812;2022-11-20T08:43:59;0.10;99.90
52919;DHT22;38793;52.690;6.812;2022-11-20T08:46:27;0.00;99.90
52919;DHT22;38793;52.690;6.812;2022-11-20T08:48:53;0.00;99.90
52919;DHT22;38793;52.690;6.812;2022-11-20T08:51:19;0.00;99.90
52919;DHT22;38793;52.690;6.812;2022-11-20T08:53:45;0.10;99.90
52919;DHT22;38793;52.690;6.812;2022-11-20T08:56:11;0.00;99.90
52919;DHT22;38793;52.690;6.812;2022-11-20T08:58:38;-0.10;99.90
52919;DHT22;38793;52.690;6.812;2022-11-20T09:01:04;-0.10;99.90
52919;DHT22;38793;52.690;6.812;2022-11-20T09:03:29;-0.10;99.90
52919;DHT22;38793;52.690;6.812;2022-11-20T09:06:04;0.00;99.90
52919;DHT22;38793;52.690;6.812;2022-11-20T09:08:30;0.10;99.90
52919;DHT22;38793;52.690;6.812;2022-11-20T09:10:56;0.50;99.90
52919;DHT22;38793;52.690;6.812;2022-11-20T09:13:24;1.10;99.90
52919;DHT22;38793;52.690;6.812;2022-11-20T09:15:57;1.80;99.90
52919;DHT22;38793;52.690;6.812;2022-11-20T09:18:23;2.60;99.90
52919;DHT22;38793;52.690;6.812;2022-11-20T09:20:49;4.00;99.90
52919;DHT22;38793;52.690;6.812;2022-11-20T09:23:15;5.50;99.90
52919;DHT22;38793;52.690;6.812;2022-11-20T09:25:42;7.30;99.90
52919;DHT22;38793;52.690;6.812;2022-11-20T09:28:08;8.80;99.90
52919;DHT22;38793;52.690;6.812;2022-11-20T09:30:33;10.30;99.50
52919;DHT22;38793;52.690;6.812;2022-11-20T09:32:59;11.60;97.10
52919;DHT22;38793;52.690;6.812;2022-11-20T09:35:25;12.50;95.10
52919;DHT22;38793;52.690;6.812;2022-11-20T09:37:50;13.00;92.00
52919;DHT22;38793;52.690;6.812;2022-11-20T09:40:24;12.50;88.80
52919;DHT22;38793;52.690;6.812;2022-11-20T09:46:14;11.40;89.70
52919;DHT22;38793;52.690;6.812;2022-11-20T09:51:58;12.00;85.00
52919;DHT22;38793;52.690;6.812;2022-11-20T09:54:33;12.50;82.80
52919;DHT22;38793;52.690;6.812;2022-11-20T09:57:02;12.90;81.80
52919;DHT22;38793;52.690;6.812;2022-11-20T09:59:31;13.20;80.80
52919;DHT22;38793;52.690;6.812;2022-11-20T10:01:59;13.40;79.20
52919;DHT22;38793;52.690;6.812;2022-11-20T10:04:25;13.50;78.20
52919;DHT22;38793;52.690;6.812;2022-11-20T10:07:21;13.20;74.40
52919;DHT22;38793;52.690;6.812;2022-11-20T10:09:52;12.60;73.40
52919;DHT22;38793;52.690;6.812;2022-11-20T10:15:31;11.40;74.80
52919;DHT22;38793;52.690;6.812;2022-11-20T10:20:54;10.60;77.30
52919;DHT22;38793;52.690;6.812;2022-11-20T10:29:34;9.70;76.90
52919;DHT22;38793;52.690;6.812;2022-11-20T10:32:07;9.40;78.80
52919;DHT22;38793;52.690;6.812;2022-11-20T10:37:18;10.10;78.10
52919;DHT22;38793;52.690;6.812;2022-11-20T10:40:02;10.30;78.30
52919;DHT22;38793;52.690;6.812;2022-11-20T10:42:47;10.40;74.60
52919;DHT22;38793;52.690;6.812;2022-11-20T10:50:26;10.00;74.90
52919;DHT22;38793;52.690;6.812;2022-11-20T10:53:21;10.00;74.20
52919;DHT22;38793;52.690;6.812;2022-11-20T10:55:57;10.00;74.90
52919;DHT22;38793;52.690;6.812;2022-11-20T11:01:17;9.90;76.20
52919;DHT22;38793;52.690;6.812;2022-11-20T11:03:43;9.60;73.90
52919;DHT22;38793;52.690;6.812;2022-11-20T11:08:44;8.40;72.40
52919;DHT22;38793;52.690;6.812;2022-11-20T11:11:18;8.00;74.10
52919;DHT22;38793;52.690;6.812;2022-11-20T11:13:45;7.80;72.90
52919;DHT22;38793;52.690;6.812;2022-11-20T11:16:49;7.80;71.80
52919;DHT22;38793;52.690;6.812;2022-11-20T11:19:14;7.60;71.60
52919;DHT22;38793;52.690;6.812;2022-11-20T11:21:52;7.60;73.60
52919;DHT22;38793;52.690;6.812;2022-11-20T11:24:29;7.70;72.90
52919;DHT22;38793;52.690;6.812;2022-11-20T11:26:58;7.90;73.70
52919;DHT22;38793;52.690;6.812;2022-11-20T11:29:24;7.80;74.90
52919;DHT22;38793;52.690;6.812;2022-11-20T11:32:03;7.70;73.80
52919;DHT22;38793;52.690;6.812;2022-11-20T11:34:29;7.50;74.60
52919;DHT22;38793;52.690;6.812;2022-11-20T11:36:58;7.30;74.80
52919;DHT22;38793;52.690;6.812;2022-11-20T11:39:25;7.20;75.70
52919;DHT22;38793;52.690;6.812;2022-11-20T11:41:51;7.00;76.40
52919;DHT22;38793;52.690;6.812;2022-11-20T11:44:19;7.00;77.30
52919;DHT22;38793;52.690;6.812;2022-11-20T11:47:06;6.80;77.60
52919;DHT22;38793;52.690;6.812;2022-11-20T11:49:34;6.70;78.20
52919;DHT22;38793;52.690;6.812;2022-11-20T11:52:17;6.60;78.60
52919;DHT22;38793;52.690;6.812;2022-11-20T11:54:55;6.50;78.10
52919;DHT22;38793;52.690;6.812;2022-11-20T12:00:18;6.60;79.50
52919;DHT22;38793;52.690;6.812;2022-11-20T12:05:25;6.90;80.90
52919;DHT22;38793;52.690;6.812;2022-11-20T12:08:05;7.20;81.40
52919;DHT22;38793;52.690;6.812;2022-11-20T12:10:51;8.00;81.10
52919;DHT22;38793;52.690;6.812;2022-11-20T12:16:00;9.30;77.20
52919;DHT22;38793;52.690;6.812;2022-11-20T12:18:27;9.70;77.00
52919;DHT22;38793;52.690;6.812;2022-11-20T12:23:53;10.10;76.50
52919;DHT22;38793;52.690;6.812;2022-11-20T12:37:34;9.10;76.00
52919;DHT22;38793;52.690;6.812;2022-11-20T12:46:09;8.80;79.40
52919;DHT22;38793;52.690;6.812;2022-11-20T12:49:23;8.40;78.20
52919;DHT22;38793;52.690;6.812;2022-11-20T12:57:25;6.90;81.00
52919;DHT22;38793;52.690;6.812;2022-11-20T13:07:38;5.40;89.30
52919;DHT22;38793;52.690;6.812;2022-11-20T13:10:06;5.00;90.60
52919;DHT22;38793;52.690;6.812;2022-11-20T13:12:46;4.80;92.20
52919;DHT22;38793;52.690;6.812;2022-11-20T13:18:02;4.40;95.20
52919;DHT22;38793;52.690;6.812;2022-11-20T13:20:29;4.30;96.50
52919;DHT22;38793;52.690;6.812;2022-11-20T13:22:56;4.10;98.00
52919;DHT22;38793;52.690;6.812;2022-11-20T13:25:26;4.00;98.80
52919;DHT22;38793;52.690;6.812;2022-11-20T13:27:53;3.90;99.90
52919;DHT22;38793;52.690;6.812;2022-11-20T13:30:24;3.90;99.90
52919;DHT22;38793;52.690;6.812;2022-11-20T13:35:32;4.00;99.90
52919;DHT22;38793;52.690;6.812;2022-11-20T13:38:05;4.00;99.90
52919;DHT22;38793;52.690;6.812;2022-11-20T13:40:31;3.80;99.90
52919;DHT22;38793;52.690;6.812;2022-11-20T13:43:04;3.70;99.90
52919;DHT22;38793;52.690;6.812;2022-11-20T13:45:32;3.50;99.90
52919;DHT22;38793;52.690;6.812;2022-11-20T13:48:18;3.30;99.90
52919;DHT22;38793;52.690;6.812;2022-11-20T13:50:55;3.20;99.90
52919;DHT22;38793;52.690;6.812;2022-11-20T13:53:37;3.10;99.90
52919;DHT22;38793;52.690;6.812;2022-11-20T13:56:33;3.00;99.90
52919;DHT22;38793;52.690;6.812;2022-11-20T13:59:20;3.00;99.90
52919;DHT22;38793;52.690;6.812;2022-11-20T14:01:50;3.00;99.90
52919;DHT22;38793;52.690;6.812;2022-11-20T14:04:20;2.90;99.90
52919;DHT22;38793;52.690;6.812;2022-11-20T14:06:48;2.80;99.90
52919;DHT22;38793;52.690;6.812;2022-11-20T14:09:31;2.80;99.90
52919;DHT22;38793;52.690;6.812;2022-11-20T14:11:58;2.70;99.90
52919;DHT22;38793;52.690;6.812;2022-11-20T14:14:28;2.60;99.90
52919;DHT22;38793;52.690;6.812;2022-11-20T14:17:09;2.60;99.90
52919;DHT22;38793;52.690;6.812;2022-11-20T14:19:44;2.50;99.90
52919;DHT22;38793;52.690;6.812;2022-11-20T14:24:49;2.40;99.90
52919;DHT22;38793;52.690;6.812;2022-11-20T14:27:25;2.30;99.90
52919;DHT22;38793;52.690;6.812;2022-11-20T14:29:51;2.30;99.90
52919;DHT22;38793;52.690;6.812;2022-11-20T14:32:22;2.30;99.90
52919;DHT22;38793;52.690;6.812;2022-11-20T14:34:50;2.20;99.90
52919;DHT22;38793;52.690;6.812;2022-11-20T14:37:22;2.20;99.90
52919;DHT22;38793;52.690;6.812;2022-11-20T14:39:54;2.10;99.90
52919;DHT22;38793;52.690;6.812;2022-11-20T14:42:25;2.00;99.90
52919;DHT22;38793;52.690;6.812;2022-11-20T14:44:54;2.00;99.90
52919;DHT22;38793;52.690;6.812;2022-11-20T14:47:23;2.00;99.90
52919;DHT22;38793;52.690;6.812;2022-11-20T14:49:51;1.90;99.90
52919;DHT22;38793;52.690;6.812;2022-11-20T14:52:20;1.90;99.90
52919;DHT22;38793;52.690;6.812;2022-11-20T14:54:54;1.90;99.90
52919;DHT22;38793;52.690;6.812;2022-11-20T14:57:28;1.80;99.90
52919;DHT22;38793;52.690;6.812;2022-11-20T15:02:42;1.80;99.90
52919;DHT22;38793;52.690;6.812;2022-11-20T15:05:08;1.80;99.90
52919;DHT22;38793;52.690;6.812;2022-11-20T15:07:39;1.80;99.90
52919;DHT22;38793;52.690;6.812;2022-11-20T15:10:12;1.80;99.90
52919;DHT22;38793;52.690;6.812;2022-11-20T15:12:41;1.80;99.90
52919;DHT22;38793;52.690;6.812;2022-11-20T15:15:12;1.80;99.90
52919;DHT22;38793;52.690;6.812;2022-11-20T15:17:40;1.80;99.90
52919;DHT22;38793;52.690;6.812;2022-11-20T15:20:13;1.70;99.90
52919;DHT22;38793;52.690;6.812;2022-11-20T15:22:38;1.80;99.90
52919;DHT22;38793;52.690;6.812;2022-11-20T15:25:15;1.80;99.90
52919;DHT22;38793;52.690;6.812;2022-11-20T15:27:41;1.80;99.90
52919;DHT22;38793;52.690;6.812;2022-11-20T15:30:19;1.80;99.90
52919;DHT22;38793;52.690;6.812;2022-11-20T15:32:46;1.80;99.90
52919;DHT22;38793;52.690;6.812;2022-11-20T15:35:12;1.80;99.90
52919;DHT22;38793;52.690;6.812;2022-11-20T15:37:39;1.80;99.90
52919;DHT22;38793;52.690;6.812;2022-11-20T15:40:06;1.80;99.90
52919;DHT22;38793;52.690;6.812;2022-11-20T15:42:32;1.80;99.90
52919;DHT22;38793;52.690;6.812;2022-11-20T15:44:58;1.80;99.90
52919;DHT22;38793;52.690;6.812;2022-11-20T15:47:32;1.90;99.90
52919;DHT22;38793;52.690;6.812;2022-11-20T15:49:58;1.80;99.90
52919;DHT22;38793;52.690;6.812;2022-11-20T15:52:24;1.80;99.90
52919;DHT22;38793;52.690;6.812;2022-11-20T15:54:50;1.90;99.90
52919;DHT22;38793;52.690;6.812;2022-11-20T15:57:16;2.00;99.90
52919;DHT22;38793;52.690;6.812;2022-11-20T15:59:41;2.00;99.90
52919;DHT22;38793;52.690;6.812;2022-11-20T16:02:11;2.00;99.90
52919;DHT22;38793;52.690;6.812;2022-11-20T16:04:37;2.10;99.90
52919;DHT22;38793;52.690;6.812;2022-11-20T16:07:03;2.10;99.90
52919;DHT22;38793;52.690;6.812;2022-11-20T16:09:29;2.00;99.90
52919;DHT22;38793;52.690;6.812;2022-11-20T16:11:55;2.00;99.90
52919;DHT22;38793;52.690;6.812;2022-11-20T16:14:20;2.00;99.90
52919;DHT22;38793;52.690;6.812;2022-11-20T16:17:04;2.00;99.90
52919;DHT22;38793;52.690;6.812;2022-11-20T16:19:30;2.00;99.90
52919;DHT22;38793;52.690;6.812;2022-11-20T16:21:57;2.00;99.90
52919;DHT22;38793;52.690;6.812;2022-11-20T16:24:23;1.90;99.90
52919;DHT22;38793;52.690;6.812;2022-11-20T16:26:49;1.90;99.90
52919;DHT22;38793;52.690;6.812;2022-11-20T16:29:14;1.80;99.90
52919;DHT22;38793;52.690;6.812;2022-11-20T16:31:40;1.80;99.90
52919;DHT22;38793;52.690;6.812;2022-11-20T16:34:07;1.90;99.90
52919;DHT22;38793;52.690;6.812;2022-11-20T16:36:33;1.80;99.90
52919;DHT22;38793;52.690;6.812;2022-11-20T16:39:00;1.80;99.90
52919;DHT22;38793;52.690;6.812;2022-11-20T16:41:29;1.90;99.90
52919;DHT22;38793;52.690;6.812;2022-11-20T16:43:57;1.80;99.90
52919;DHT22;38793;52.690;6.812;2022-11-20T16:46:24;1.80;99.90
52919;DHT22;38793;52.690;6.812;2022-11-20T16:48:58;1.80;99.90
52919;DHT22;38793;52.690;6.812;2022-11-20T16:51:27;1.80;99.90
52919;DHT22;38793;52.690;6.812;2022-11-20T16:53:53;1.80;99.90
52919;DHT22;38793;52.690;6.812;2022-11-20T16:56:24;1.80;99.90
52919;DHT22;38793;52.690;6.812;2022-11-20T16:58:50;1.70;99.90
52919;DHT22;38793;52.690;6.812;2022-11-20T17:01:18;1.70;99.90
52919;DHT22;38793;52.690;6.812;2022-11-20T17:03:46;1.70;99.90
52919;DHT22;38793;52.690;6.812;2022-11-20T17:06:22;1.70;99.90
52919;DHT22;38793;52.690;6.812;2022-11-20T17:08:47;1.70;99.90
52919;DHT22;38793;52.690;6.812;2022-11-20T17:11:15;2.00;99.90